sensor_id;sensor_type;location;lat;lon;timestamp;pressure;altitude;pressure_sealevel;temperature;humidity
19596;BME280;9945;46.010;8.946;2022-11-25T00:01:10;97220.41;;;11.56;47.01
19596;BME280;9945;46.010;8.946;2022-11-25T00:03:39;97215.28;;;11.46;47.59
19596;BME280;9945;46.010;8.946;2022-11-25T00:06:08;97213.09;;;11.42;47.83
19596;BME280;9945;46.010;8.946;2022-11-25T00:08:35;97221.50;;;11.45;48.25
19596;BME280;9945;46.010;8.946;2022-11-25T00:11:02;97209.34;;;11.44;47.77
19596;BME280;9945;46.010;8.946;2022-11-25T00:13:31;97214.59;;;11.44;47.74
19596;BME280;9945;46.010;8.946;2022-11-25T00:16:00;97221.94;;;11.41;48.15
19596;BME280;9945;46.010;8.946;2022-11-25T00:18:28;97222.19;;;11.29;48.38
19596;BME280;9945;46.010;8.946;2022-11-25T00:20:54;97227.59;;;11.28;49.09
19596;BME280;9945;46.010;8.946;2022-11-25T00:23:21;97232.81;;;11.28;48.89
19596;BME280;9945;46.010;8.946;2022-11-25T00:25:49;97237.09;;;11.29;48.62
19596;BME280;9945;46.010;8.946;2022-11-25T00:28:15;97239.31;;;11.24;49.41
19596;BME280;9945;46.010;8.946;2022-11-25T00:30:44;97240.91;;;11.17;49.96
19596;BME280;9945;46.010;8.946;2022-11-25T00:33:11;97242.13;;;11.22;49.82
19596;BME280;9945;46.010;8.946;2022-11-25T00:35:38;97238.50;;;11.23;49.71
19596;BME280;9945;46.010;8.946;2022-11-25T00:38:05;97236.72;;;11.24;49.75
19596;BME280;9945;46.010;8.946;2022-11-25T00:40:31;97252.00;;;11.28;49.41
19596;BME280;9945;46.010;8.946;2022-11-25T00:42:58;97253.94;;;11.26;49.38
19596;BME280;9945;46.010;8.946;2022-11-25T00:45:44;97257.03;;;11.22;49.56
19596;BME280;9945;46.010;8.946;2022-11-25T00:48:11;97261.94;;;11.25;49.60
19596;BME280;9945;46.010;8.946;2022-11-25T00:50:37;97265.09;;;11.28;49.03
19596;BME280;9945;46.010;8.946;2022-11-25T00:53:04;97281.66;;;11.29;49.74
19596;BME280;9945;46.010;8.946;2022-11-25T00:55:31;97272.13;;;11.28;50.16
19596;BME280;9945;46.010;8.946;2022-11-25T00:58:19;97277.25;;;11.12;50.38
19596;BME280;9945;46.010;8.946;2022-11-25T01:00:47;97286.28;;;11.17;49.88
19596;BME280;9945;46.010;8.946;2022-11-25T01:03:14;97279.41;;;11.16;49.68
19596;BME280;9945;46.010;8.946;2022-11-25T01:05:41;97295.94;;;11.17;49.69
19596;BME280;9945;46.010;8.946;2022-11-25T01:08:08;97306.00;;;11.21;49.71
19596;BME280;9945;46.010;8.946;2022-11-25T01:10:35;97310.25;;;11.22;49.16
19596;BME280;9945;46.010;8.946;2022-11-25T01:13:02;97315.50;;;11.22;49.41
19596;BME280;9945;46.010;8.946;2022-11-25T01:15:29;97309.66;;;11.28;49.75
19596;BME280;9945;46.010;8.946;2022-11-25T01:17:57;97307.72;;;11.30;48.48
19596;BME280;9945;46.010;8.946;2022-11-25T01:20:24;97309.19;;;11.33;47.92
19596;BME280;9945;46.010;8.946;2022-11-25T01:22:51;97314.50;;;11.41;47.49
19596;BME280;9945;46.010;8.946;2022-11-25T01:25:18;97321.72;;;11.39;48.07
19596;BME280;9945;46.010;8.946;2022-11-25T01:27:45;97323.59;;;11.47;48.38
19596;BME280;9945;46.010;8.946;2022-11-25T01:30:12;97326.22;;;11.47;48.59
19596;BME280;9945;46.010;8.946;2022-11-25T01:32:39;97320.28;;;11.45;48.91
19596;BME280;9945;46.010;8.946;2022-11-25T01:35:08;97317.38;;;11.48;48.39
19596;BME280;9945;46.010;8.946;2022-11-25T01:37:35;97317.72;;;11.53;48.32
19596;BME280;9945;46.010;8.946;2022-11-25T01:40:02;97315.63;;;11.56;48.67
19596;BME280;9945;46.010;8.946;2022-11-25T01:42:29;97314.44;;;11.51;48.44
19596;BME280;9945;46.010;8.946;2022-11-25T01:48:14;97316.91;;;11.52;48.80
19596;BME280;9945;46.010;8.946;2022-11-25T01:50:45;97305.88;;;11.49;49.69
19596;BME280;9945;46.010;8.946;2022-11-25T01:53:15;97304.50;;;11.36;50.56
19596;BME280;9945;46.010;8.946;2022-11-25T01:55:47;97309.25;;;11.41;49.92
19596;BME280;9945;46.010;8.946;2022-11-25T01:58:19;97316.16;;;11.42;49.96
19596;BME280;9945;46.010;8.946;2022-11-25T02:00:48;97328.59;;;11.40;49.37
19596;BME280;9945;46.010;8.946;2022-11-25T02:03:18;97330.09;;;11.43;50.40
19596;BME280;9945;46.010;8.946;2022-11-25T02:05:53;97335.34;;;11.43;50.08
19596;BME280;9945;46.010;8.946;2022-11-25T02:08:23;97335.41;;;11.33;50.09
19596;BME280;9945;46.010;8.946;2022-11-25T02:10:52;97335.47;;;11.23;50.53
19596;BME280;9945;46.010;8.946;2022-11-25T02:13:21;97339.16;;;11.30;50.10
19596;BME280;9945;46.010;8.946;2022-11-25T02:15:49;97343.72;;;11.28;51.20
19596;BME280;9945;46.010;8.946;2022-11-25T02:18:16;97342.63;;;11.31;51.77
19596;BME280;9945;46.010;8.946;2022-11-25T02:20:43;97340.28;;;11.28;51.02
19596;BME280;9945;46.010;8.946;2022-11-25T02:23:18;97337.66;;;11.28;51.62
19596;BME280;9945;46.010;8.946;2022-11-25T02:25:52;97332.28;;;11.29;51.87
19596;BME280;9945;46.010;8.946;2022-11-25T02:28:21;97328.06;;;11.36;51.04
19596;BME280;9945;46.010;8.946;2022-11-25T02:30:50;97332.78;;;11.33;51.31
19596;BME280;9945;46.010;8.946;2022-11-25T02:33:17;97331.94;;;11.32;51.17
19596;BME280;9945;46.010;8.946;2022-11-25T02:35:46;97338.84;;;11.33;51.50
19596;BME280;9945;46.010;8.946;2022-11-25T02:38:16;97336.84;;;11.45;51.31
19596;BME280;9945;46.010;8.946;2022-11-25T02:40:46;97348.22;;;11.36;51.18
19596;BME280;9945;46.010;8.946;2022-11-25T02:43:16;97348.00;;;11.29;51.75
19596;BME280;9945;46.010;8.946;2022-11-25T02:45:54;97348.66;;;11.31;52.01
19596;BME280;9945;46.010;8.946;2022-11-25T02:48:22;97345.44;;;11.20;51.77
19596;BME280;9945;46.010;8.946;2022-11-25T02:50:49;97343.03;;;11.26;52.21
19596;BME280;9945;46.010;8.946;2022-11-25T02:53:16;97344.34;;;11.22;52.70
19596;BME280;9945;46.010;8.946;2022-11-25T02:55:43;97329.88;;;11.18;52.29
19596;BME280;9945;46.010;8.946;2022-11-25T02:58:10;97321.72;;;11.21;52.68
19596;BME280;9945;46.010;8.946;2022-11-25T03:00:39;97326.00;;;11.22;52.85
19596;BME280;9945;46.010;8.946;2022-11-25T03:03:06;97333.69;;;11.24;53.38
19596;BME280;9945;46.010;8.946;2022-11-25T03:05:33;97333.03;;;11.22;53.67
19596;BME280;9945;46.010;8.946;2022-11-25T03:08:00;97339.09;;;11.22;53.11
19596;BME280;9945;46.010;8.946;2022-11-25T03:10:27;97338.09;;;11.23;52.68
19596;BME280;9945;46.010;8.946;2022-11-25T03:12:54;97340.94;;;11.12;52.25
19596;BME280;9945;46.010;8.946;2022-11-25T03:15:21;97341.16;;;11.19;51.42
19596;BME280;9945;46.010;8.946;2022-11-25T03:17:50;97338.41;;;11.20;51.72
19596;BME280;9945;46.010;8.946;2022-11-25T03:20:17;97335.47;;;11.23;51.85
19596;BME280;9945;46.010;8.946;2022-11-25T03:22:45;97339.53;;;11.18;52.31
19596;BME280;9945;46.010;8.946;2022-11-25T03:25:12;97345.59;;;11.18;52.26
19596;BME280;9945;46.010;8.946;2022-11-25T03:27:40;97349.72;;;11.21;51.83
19596;BME280;9945;46.010;8.946;2022-11-25T03:30:10;97348.56;;;11.23;52.07
19596;BME280;9945;46.010;8.946;2022-11-25T03:32:38;97357.72;;;11.19;52.63
19596;BME280;9945;46.010;8.946;2022-11-25T03:35:08;97366.09;;;11.05;53.04
19596;BME280;9945;46.010;8.946;2022-11-25T03:37:36;97348.66;;;11.14;52.77
19596;BME280;9945;46.010;8.946;2022-11-25T03:40:05;97354.72;;;11.14;53.13
19596;BME280;9945;46.010;8.946;2022-11-25T03:42:32;97354.88;;;11.13;52.85
19596;BME280;9945;46.010;8.946;2022-11-25T03:45:00;97356.34;;;11.15;52.75
19596;BME280;9945;46.010;8.946;2022-11-25T03:47:27;97367.66;;;11.16;52.33
19596;BME280;9945;46.010;8.946;2022-11-25T03:49:54;97368.72;;;11.23;52.84
19596;BME280;9945;46.010;8.946;2022-11-25T03:52:22;97376.88;;;11.20;53.00
19596;BME280;9945;46.010;8.946;2022-11-25T03:54:49;97373.44;;;11.19;53.33
19596;BME280;9945;46.010;8.946;2022-11-25T03:57:16;97373.88;;;11.15;53.96
19596;BME280;9945;46.010;8.946;2022-11-25T03:59:43;97369.09;;;11.10;54.04
19596;BME280;9945;46.010;8.946;2022-11-25T04:02:10;97364.66;;;11.11;54.11
19596;BME280;9945;46.010;8.946;2022-11-25T04:04:38;97366.47;;;11.10;54.71
19596;BME280;9945;46.010;8.946;2022-11-25T04:07:05;97370.75;;;11.11;54.58
19596;BME280;9945;46.010;8.946;2022-11-25T04:09:34;97365.63;;;11.10;56.07
19596;BME280;9945;46.010;8.946;2022-11-25T04:12:01;97363.31;;;11.07;56.20
19596;BME280;9945;46.010;8.946;2022-11-25T04:15:00;97358.81;;;10.99;56.50
19596;BME280;9945;46.010;8.946;2022-11-25T04:17:26;97363.91;;;11.00;56.12
19596;BME280;9945;46.010;8.946;2022-11-25T04:19:53;97357.25;;;11.06;56.60
19596;BME280;9945;46.010;8.946;2022-11-25T04:22:20;97356.19;;;10.99;57.04
19596;BME280;9945;46.010;8.946;2022-11-25T04:24:48;97345.09;;;10.87;57.15
19596;BME280;9945;46.010;8.946;2022-11-25T04:27:15;97351.59;;;10.83;56.79
19596;BME280;9945;46.010;8.946;2022-11-25T04:29:42;97370.19;;;10.80;56.85
19596;BME280;9945;46.010;8.946;2022-11-25T04:32:09;97365.56;;;10.74;56.41
19596;BME280;9945;46.010;8.946;2022-11-25T04:34:36;97356.72;;;10.75;56.61
19596;BME280;9945;46.010;8.946;2022-11-25T04:37:03;97365.44;;;10.66;57.50
19596;BME280;9945;46.010;8.946;2022-11-25T04:39:30;97359.84;;;10.61;58.63
19596;BME280;9945;46.010;8.946;2022-11-25T04:41:58;97357.59;;;10.66;59.41
19596;BME280;9945;46.010;8.946;2022-11-25T04:44:39;97363.53;;;10.68;59.90
19596;BME280;9945;46.010;8.946;2022-11-25T04:47:05;97367.34;;;10.74;58.22
19596;BME280;9945;46.010;8.946;2022-11-25T04:49:32;97370.66;;;10.76;57.79
19596;BME280;9945;46.010;8.946;2022-11-25T04:51:59;97376.84;;;10.75;57.69
19596;BME280;9945;46.010;8.946;2022-11-25T04:54:26;97380.88;;;10.69;57.71
19596;BME280;9945;46.010;8.946;2022-11-25T04:56:53;97382.69;;;10.69;57.33
19596;BME280;9945;46.010;8.946;2022-11-25T04:59:22;97374.00;;;10.68;57.60
19596;BME280;9945;46.010;8.946;2022-11-25T05:02:06;97375.78;;;10.68;57.88
19596;BME280;9945;46.010;8.946;2022-11-25T05:04:37;97377.72;;;10.66;57.59
19596;BME280;9945;46.010;8.946;2022-11-25T05:07:04;97375.66;;;10.69;56.50
19596;BME280;9945;46.010;8.946;2022-11-25T05:09:31;97377.94;;;10.72;56.51
19596;BME280;9945;46.010;8.946;2022-11-25T05:11:58;97378.50;;;10.76;56.66
19596;BME280;9945;46.010;8.946;2022-11-25T05:14:26;97383.47;;;10.79;57.33
19596;BME280;9945;46.010;8.946;2022-11-25T05:16:53;97385.53;;;10.75;57.84
19596;BME280;9945;46.010;8.946;2022-11-25T05:19:20;97386.53;;;10.65;57.81
19596;BME280;9945;46.010;8.946;2022-11-25T05:21:47;97386.28;;;10.58;57.33
19596;BME280;9945;46.010;8.946;2022-11-25T05:24:13;97377.91;;;10.54;56.81
19596;BME280;9945;46.010;8.946;2022-11-25T05:26:40;97391.66;;;10.56;55.98
19596;BME280;9945;46.010;8.946;2022-11-25T05:29:08;97390.19;;;10.54;55.18
19596;BME280;9945;46.010;8.946;2022-11-25T05:31:36;97391.56;;;10.48;55.54
19596;BME280;9945;46.010;8.946;2022-11-25T05:34:04;97398.19;;;10.43;55.46
19596;BME280;9945;46.010;8.946;2022-11-25T05:36:31;97406.91;;;10.34;55.38
19596;BME280;9945;46.010;8.946;2022-11-25T05:38:59;97395.06;;;10.30;55.52
19596;BME280;9945;46.010;8.946;2022-11-25T05:41:26;97396.19;;;10.27;55.53
19596;BME280;9945;46.010;8.946;2022-11-25T05:43:53;97399.19;;;10.22;56.25
19596;BME280;9945;46.010;8.946;2022-11-25T05:46:20;97401.00;;;10.22;56.28
19596;BME280;9945;46.010;8.946;2022-11-25T05:48:51;97396.31;;;10.16;56.16
19596;BME280;9945;46.010;8.946;2022-11-25T05:51:19;97398.34;;;10.12;56.09
19596;BME280;9945;46.010;8.946;2022-11-25T05:53:45;97399.75;;;10.07;56.45
19596;BME280;9945;46.010;8.946;2022-11-25T05:56:12;97401.84;;;10.03;57.07
19596;BME280;9945;46.010;8.946;2022-11-25T05:58:39;97403.63;;;10.03;56.46
19596;BME280;9945;46.010;8.946;2022-11-25T06:01:07;97407.63;;;9.97;56.91
19596;BME280;9945;46.010;8.946;2022-11-25T06:03:34;97405.94;;;9.96;57.28
19596;BME280;9945;46.010;8.946;2022-11-25T06:06:03;97404.47;;;9.94;57.51
19596;BME280;9945;46.010;8.946;2022-11-25T06:08:30;97409.69;;;9.74;59.04
19596;BME280;9945;46.010;8.946;2022-11-25T06:10:57;97403.78;;;9.82;58.39
19596;BME280;9945;46.010;8.946;2022-11-25T06:13:24;97414.09;;;9.83;59.48
19596;BME280;9945;46.010;8.946;2022-11-25T06:15:51;97413.53;;;9.80;59.78
19596;BME280;9945;46.010;8.946;2022-11-25T06:18:18;97420.16;;;9.74;62.25
19596;BME280;9945;46.010;8.946;2022-11-25T06:20:54;97429.50;;;9.67;62.52
19596;BME280;9945;46.010;8.946;2022-11-25T06:23:23;97421.53;;;9.69;62.78
19596;BME280;9945;46.010;8.946;2022-11-25T06:25:50;97425.38;;;9.65;63.05
19596;BME280;9945;46.010;8.946;2022-11-25T06:28:17;97423.72;;;9.64;63.72
19596;BME280;9945;46.010;8.946;2022-11-25T06:30:44;97424.41;;;9.66;61.83
19596;BME280;9945;46.010;8.946;2022-11-25T06:33:11;97424.28;;;9.67;60.74
19596;BME280;9945;46.010;8.946;2022-11-25T06:35:38;97424.81;;;9.61;59.66
19596;BME280;9945;46.010;8.946;2022-11-25T06:38:04;97428.41;;;9.70;58.10
19596;BME280;9945;46.010;8.946;2022-11-25T06:40:33;97428.41;;;9.70;59.26
19596;BME280;9945;46.010;8.946;2022-11-25T06:43:00;97424.81;;;9.80;58.40
19596;BME280;9945;46.010;8.946;2022-11-25T06:45:27;97436.81;;;9.73;58.89
19596;BME280;9945;46.010;8.946;2022-11-25T06:47:53;97439.84;;;9.69;58.73
19596;BME280;9945;46.010;8.946;2022-11-25T06:50:20;97437.88;;;9.61;59.91
19596;BME280;9945;46.010;8.946;2022-11-25T06:52:47;97443.94;;;9.62;58.37
19596;BME280;9945;46.010;8.946;2022-11-25T06:55:14;97448.06;;;9.64;59.98
19596;BME280;9945;46.010;8.946;2022-11-25T06:57:43;97444.75;;;9.62;58.84
19596;BME280;9945;46.010;8.946;2022-11-25T07:00:10;97445.72;;;9.61;58.83
19596;BME280;9945;46.010;8.946;2022-11-25T07:02:37;97447.81;;;9.58;58.87
19596;BME280;9945;46.010;8.946;2022-11-25T07:05:04;97448.22;;;9.63;59.38
19596;BME280;9945;46.010;8.946;2022-11-25T07:07:31;97450.16;;;9.61;58.27
19596;BME280;9945;46.010;8.946;2022-11-25T07:09:58;97459.34;;;9.65;58.14
19596;BME280;9945;46.010;8.946;2022-11-25T07:12:25;97455.78;;;9.66;58.67
19596;BME280;9945;46.010;8.946;2022-11-25T07:14:54;97453.03;;;9.67;58.13
19596;BME280;9945;46.010;8.946;2022-11-25T07:17:20;97461.28;;;9.63;58.32
19596;BME280;9945;46.010;8.946;2022-11-25T07:19:47;97454.13;;;9.55;59.13
19596;BME280;9945;46.010;8.946;2022-11-25T07:22:14;97456.03;;;9.63;58.83
19596;BME280;9945;46.010;8.946;2022-11-25T07:24:42;97458.28;;;9.67;57.71
19596;BME280;9945;46.010;8.946;2022-11-25T07:27:09;97456.75;;;9.65;60.41
19596;BME280;9945;46.010;8.946;2022-11-25T07:29:36;97460.31;;;9.73;59.38
19596;BME280;9945;46.010;8.946;2022-11-25T07:32:04;97465.00;;;9.79;60.49
19596;BME280;9945;46.010;8.946;2022-11-25T07:34:31;97471.75;;;9.92;59.57
19596;BME280;9945;46.010;8.946;2022-11-25T07:36:58;97470.81;;;10.02;59.69
19596;BME280;9945;46.010;8.946;2022-11-25T07:39:25;97473.97;;;10.06;59.35
19596;BME280;9945;46.010;8.946;2022-11-25T07:41:52;97477.13;;;10.00;58.52
19596;BME280;9945;46.010;8.946;2022-11-25T07:44:20;97473.69;;;9.99;59.37
19596;BME280;9945;46.010;8.946;2022-11-25T07:46:48;97476.72;;;10.04;58.66
19596;BME280;9945;46.010;8.946;2022-11-25T07:49:19;97475.22;;;10.11;56.96
19596;BME280;9945;46.010;8.946;2022-11-25T07:51:48;97482.38;;;10.09;56.42
19596;BME280;9945;46.010;8.946;2022-11-25T07:54:16;97483.72;;;10.13;56.61
19596;BME280;9945;46.010;8.946;2022-11-25T07:56:43;97488.16;;;10.22;56.88
19596;BME280;9945;46.010;8.946;2022-11-25T07:59:12;97489.38;;;10.47;56.05
19596;BME280;9945;46.010;8.946;2022-11-25T08:01:40;97503.00;;;10.70;54.74
19596;BME280;9945;46.010;8.946;2022-11-25T08:04:09;97497.25;;;10.94;54.32
19596;BME280;9945;46.010;8.946;2022-11-25T08:06:38;97503.78;;;11.17;53.98
19596;BME280;9945;46.010;8.946;2022-11-25T08:09:08;97507.34;;;11.26;52.85
19596;BME280;9945;46.010;8.946;2022-11-25T08:11:36;97502.66;;;11.29;52.63
19596;BME280;9945;46.010;8.946;2022-11-25T08:14:04;97511.06;;;11.51;52.44
19596;BME280;9945;46.010;8.946;2022-11-25T08:16:31;97508.63;;;11.67;52.15
19596;BME280;9945;46.010;8.946;2022-11-25T08:19:00;97507.59;;;11.87;51.95
19596;BME280;9945;46.010;8.946;2022-11-25T08:21:27;97511.25;;;12.30;50.86
19596;BME280;9945;46.010;8.946;2022-11-25T08:23:56;97514.56;;;13.01;49.75
19596;BME280;9945;46.010;8.946;2022-11-25T08:26:26;97510.34;;;13.84;47.00
19596;BME280;9945;46.010;8.946;2022-11-25T08:28:55;97505.66;;;14.45;45.29
19596;BME280;9945;46.010;8.946;2022-11-25T08:31:24;97515.84;;;16.82;41.84
19596;BME280;9945;46.010;8.946;2022-11-25T08:33:52;97516.69;;;17.56;39.42
19596;BME280;9945;46.010;8.946;2022-11-25T08:36:19;97525.09;;;17.30;38.44
19596;BME280;9945;46.010;8.946;2022-11-25T08:38:49;97523.63;;;17.13;39.07
19596;BME280;9945;46.010;8.946;2022-11-25T08:41:21;97517.06;;;17.53;38.21
19596;BME280;9945;46.010;8.946;2022-11-25T08:43:49;97534.66;;;21.13;32.33
19596;BME280;9945;46.010;8.946;2022-11-25T08:46:18;97531.16;;;20.40;32.61
19596;BME280;9945;46.010;8.946;2022-11-25T08:48:46;97530.25;;;21.71;30.61
19596;BME280;9945;46.010;8.946;2022-11-25T08:51:15;97546.13;;;21.40;30.46
19596;BME280;9945;46.010;8.946;2022-11-25T08:53:44;97548.69;;;26.89;24.11
19596;BME280;9945;46.010;8.946;2022-11-25T08:56:12;97545.41;;;25.15;24.88
19596;BME280;9945;46.010;8.946;2022-11-25T08:58:42;97551.22;;;21.55;30.66
19596;BME280;9945;46.010;8.946;2022-11-25T09:01:10;97545.13;;;18.98;33.75
19596;BME280;9945;46.010;8.946;2022-11-25T09:03:38;97551.78;;;17.43;37.59
19596;BME280;9945;46.010;8.946;2022-11-25T09:06:06;97544.75;;;16.60;38.92
19596;BME280;9945;46.010;8.946;2022-11-25T09:08:34;97546.22;;;16.40;37.91
19596;BME280;9945;46.010;8.946;2022-11-25T09:11:02;97546.19;;;15.47;40.62
19596;BME280;9945;46.010;8.946;2022-11-25T09:13:29;97541.19;;;14.89;41.35
19596;BME280;9945;46.010;8.946;2022-11-25T09:15:57;97539.09;;;14.68;43.19
19596;BME280;9945;46.010;8.946;2022-11-25T09:18:26;97541.53;;;15.02;42.94
19596;BME280;9945;46.010;8.946;2022-11-25T09:20:55;97539.50;;;15.21;42.71
19596;BME280;9945;46.010;8.946;2022-11-25T09:23:22;97537.19;;;16.80;39.09
19596;BME280;9945;46.010;8.946;2022-11-25T09:25:50;97535.91;;;18.30;36.43
19596;BME280;9945;46.010;8.946;2022-11-25T09:28:18;97534.78;;;18.39;35.94
19596;BME280;9945;46.010;8.946;2022-11-25T09:30:45;97535.06;;;22.45;29.68
19596;BME280;9945;46.010;8.946;2022-11-25T09:33:13;97540.50;;;25.36;25.69
19596;BME280;9945;46.010;8.946;2022-11-25T09:35:40;97553.78;;;30.15;21.70
19596;BME280;9945;46.010;8.946;2022-11-25T09:38:08;97546.97;;;32.79;18.52
19596;BME280;9945;46.010;8.946;2022-11-25T09:40:40;97556.53;;;33.68;17.50
19596;BME280;9945;46.010;8.946;2022-11-25T09:43:19;97552.66;;;35.48;16.22
19596;BME280;9945;46.010;8.946;2022-11-25T09:46:35;97557.69;;;36.15;14.92
19596;BME280;9945;46.010;8.946;2022-11-25T09:49:16;97566.41;;;36.80;14.21
19596;BME280;9945;46.010;8.946;2022-11-25T09:51:56;97560.91;;;38.74;13.11
19596;BME280;9945;46.010;8.946;2022-11-25T09:54:28;97556.56;;;38.99;12.50
19596;BME280;9945;46.010;8.946;2022-11-25T09:57:02;97548.78;;;37.08;13.79
19596;BME280;9945;46.010;8.946;2022-11-25T09:59:40;97556.31;;;38.27;13.06
19596;BME280;9945;46.010;8.946;2022-11-25T10:02:15;97557.53;;;38.94;12.53
19596;BME280;9945;46.010;8.946;2022-11-25T10:04:50;97552.03;;;37.64;13.02
19596;BME280;9945;46.010;8.946;2022-11-25T10:07:26;97554.16;;;37.44;12.49
19596;BME280;9945;46.010;8.946;2022-11-25T10:09:59;97554.97;;;37.45;12.93
19596;BME280;9945;46.010;8.946;2022-11-25T10:12:29;97552.19;;;37.36;12.13
19596;BME280;9945;46.010;8.946;2022-11-25T10:14:59;97551.97;;;37.55;12.58
19596;BME280;9945;46.010;8.946;2022-11-25T10:17:34;97551.88;;;36.93;13.07
19596;BME280;9945;46.010;8.946;2022-11-25T10:20:12;97540.63;;;36.72;13.71
19596;BME280;9945;46.010;8.946;2022-11-25T10:22:42;97544.03;;;36.78;13.74
19596;BME280;9945;46.010;8.946;2022-11-25T10:25:14;97546.75;;;37.45;13.33
19596;BME280;9945;46.010;8.946;2022-11-25T10:27:43;97542.06;;;37.37;13.76
19596;BME280;9945;46.010;8.946;2022-11-25T10:30:16;97546.19;;;36.04;14.11
19596;BME280;9945;46.010;8.946;2022-11-25T10:32:47;97510.16;;;33.60;16.52
19596;BME280;9945;46.010;8.946;2022-11-25T10:35:23;97511.91;;;34.41;15.42
19596;BME280;9945;46.010;8.946;2022-11-25T10:37:57;97501.97;;;33.36;16.79
19596;BME280;9945;46.010;8.946;2022-11-25T10:40:26;97501.31;;;33.49;16.58
19596;BME280;9945;46.010;8.946;2022-11-25T10:42:53;97495.25;;;33.57;16.15
19596;BME280;9945;46.010;8.946;2022-11-25T10:45:25;97493.88;;;33.84;16.66
19596;BME280;9945;46.010;8.946;2022-11-25T10:48:09;97476.41;;;32.79;17.12
19596;BME280;9945;46.010;8.946;2022-11-25T10:50:53;97480.06;;;31.41;18.20
19596;BME280;9945;46.010;8.946;2022-11-25T10:53:24;97480.56;;;32.33;17.62
19596;BME280;9945;46.010;8.946;2022-11-25T10:56:00;97470.88;;;33.95;16.80
19596;BME280;9945;46.010;8.946;2022-11-25T10:58:32;97461.44;;;33.68;16.89
19596;BME280;9945;46.010;8.946;2022-11-25T11:01:13;97460.75;;;32.71;18.00
19596;BME280;9945;46.010;8.946;2022-11-25T11:03:42;97466.59;;;33.17;16.57
19596;BME280;9945;46.010;8.946;2022-11-25T11:06:32;97463.69;;;33.09;17.47
19596;BME280;9945;46.010;8.946;2022-11-25T11:09:01;97459.66;;;32.72;18.21
19596;BME280;9945;46.010;8.946;2022-11-25T11:11:28;97459.16;;;32.65;17.89
19596;BME280;9945;46.010;8.946;2022-11-25T11:14:11;97453.09;;;31.95;18.55
19596;BME280;9945;46.010;8.946;2022-11-25T11:16:40;97458.91;;;32.95;17.83
19596;BME280;9945;46.010;8.946;2022-11-25T11:19:19;97447.16;;;31.88;18.60
19596;BME280;9945;46.010;8.946;2022-11-25T11:21:49;97448.72;;;32.82;17.77
19596;BME280;9945;46.010;8.946;2022-11-25T11:24:28;97451.25;;;33.55;16.74
19596;BME280;9945;46.010;8.946;2022-11-25T11:27:05;97444.34;;;32.03;18.64
19596;BME280;9945;46.010;8.946;2022-11-25T11:29:32;97433.47;;;32.13;18.52
19596;BME280;9945;46.010;8.946;2022-11-25T11:32:01;97435.06;;;33.21;16.59
19596;BME280;9945;46.010;8.946;2022-11-25T11:34:48;97438.56;;;32.25;17.72
19596;BME280;9945;46.010;8.946;2022-11-25T11:37:32;97432.06;;;31.72;18.56
19596;BME280;9945;46.010;8.946;2022-11-25T11:40:17;97427.41;;;30.62;19.12
19596;BME280;9945;46.010;8.946;2022-11-25T11:42:56;97425.41;;;32.81;17.88
19596;BME280;9945;46.010;8.946;2022-11-25T11:45:52;97424.41;;;31.89;18.74
19596;BME280;9945;46.010;8.946;2022-11-25T11:48:25;97423.91;;;32.26;18.20
19596;BME280;9945;46.010;8.946;2022-11-25T11:51:00;97418.28;;;33.14;17.45
19596;BME280;9945;46.010;8.946;2022-11-25T11:53:39;97405.38;;;32.38;16.84
19596;BME280;9945;46.010;8.946;2022-11-25T11:56:13;97412.22;;;32.64;16.89
19596;BME280;9945;46.010;8.946;2022-11-25T11:58:57;97413.09;;;32.21;17.12
19596;BME280;9945;46.010;8.946;2022-11-25T12:01:39;97411.84;;;32.42;16.76
19596;BME280;9945;46.010;8.946;2022-11-25T12:04:15;97413.19;;;32.01;17.34
19596;BME280;9945;46.010;8.946;2022-11-25T12:06:51;97411.94;;;32.32;16.92
19596;BME280;9945;46.010;8.946;2022-11-25T12:09:24;97410.34;;;33.23;16.29
19596;BME280;9945;46.010;8.946;2022-11-25T12:11:59;97409.78;;;32.97;16.46
19596;BME280;9945;46.010;8.946;2022-11-25T12:14:34;97404.91;;;32.94;16.79
19596;BME280;9945;46.010;8.946;2022-11-25T12:17:07;97402.56;;;31.60;17.60
19596;BME280;9945;46.010;8.946;2022-11-25T12:19:42;97397.41;;;31.69;17.94
19596;BME280;9945;46.010;8.946;2022-11-25T12:22:15;97392.06;;;32.03;17.84
19596;BME280;9945;46.010;8.946;2022-11-25T12:24:49;97393.88;;;30.68;19.49
19596;BME280;9945;46.010;8.946;2022-11-25T12:27:21;97391.34;;;29.86;19.00
19596;BME280;9945;46.010;8.946;2022-11-25T12:29:56;97387.38;;;30.44;18.22
19596;BME280;9945;46.010;8.946;2022-11-25T12:32:43;97384.09;;;30.47;17.90
19596;BME280;9945;46.010;8.946;2022-11-25T12:35:19;97380.56;;;30.92;18.45
19596;BME280;9945;46.010;8.946;2022-11-25T12:37:53;97374.88;;;30.94;18.60
19596;BME280;9945;46.010;8.946;2022-11-25T12:40:26;97370.25;;;31.14;18.59
19596;BME280;9945;46.010;8.946;2022-11-25T12:43:11;97369.06;;;31.41;17.61
19596;BME280;9945;46.010;8.946;2022-11-25T12:45:44;97372.63;;;31.36;17.70
19596;BME280;9945;46.010;8.946;2022-11-25T12:48:15;97372.16;;;32.22;16.61
19596;BME280;9945;46.010;8.946;2022-11-25T12:50:49;97369.06;;;31.95;17.08
19596;BME280;9945;46.010;8.946;2022-11-25T12:53:26;97366.97;;;31.82;17.14
19596;BME280;9945;46.010;8.946;2022-11-25T12:56:00;97370.31;;;32.81;16.52
19596;BME280;9945;46.010;8.946;2022-11-25T12:58:52;97367.78;;;33.13;16.37
19596;BME280;9945;46.010;8.946;2022-11-25T13:01:34;97350.88;;;32.01;17.56
19596;BME280;9945;46.010;8.946;2022-11-25T13:04:22;97345.69;;;32.04;16.89
19596;BME280;9945;46.010;8.946;2022-11-25T13:07:07;97347.84;;;32.75;15.78
19596;BME280;9945;46.010;8.946;2022-11-25T13:12:42;97332.34;;;32.18;16.13
19596;BME280;9945;46.010;8.946;2022-11-25T13:15:24;97336.94;;;32.80;15.88
19596;BME280;9945;46.010;8.946;2022-11-25T13:17:56;97336.34;;;32.54;16.20
19596;BME280;9945;46.010;8.946;2022-11-25T13:20:32;97331.34;;;32.04;16.70
19596;BME280;9945;46.010;8.946;2022-11-25T13:23:06;97320.69;;;32.17;16.37
19596;BME280;9945;46.010;8.946;2022-11-25T13:25:35;97321.06;;;31.62;16.55
19596;BME280;9945;46.010;8.946;2022-11-25T13:28:09;97319.22;;;31.91;17.35
19596;BME280;9945;46.010;8.946;2022-11-25T13:30:52;97322.13;;;30.91;18.25
19596;BME280;9945;46.010;8.946;2022-11-25T13:33:58;97317.53;;;28.45;20.99
19596;BME280;9945;46.010;8.946;2022-11-25T13:36:43;97316.47;;;26.18;23.81